Aviation

Port-au-Prince

FTHA31 MTPP 171800
TAF MTPP 171700Z 1718/1818 30006KT 9999 FEW026 PROB40 TEMPO 1800/1807 09010KT 4500 TSRA SCT022CB BKN040 BECMG 1808/1812 VRB02KT 9000 FEW020 BECMG 1813/1817 09012KT=


Cap-Haïtien

FTHA31 MTCH 171800
TAF MTCH 171700Z 1718/1818 01008KT 9999 FEW030TCU BECMG 1800/1806 4000 TSRA SCT022CB BKN050 BECMG 1808/1812 VRB02KT 9000 FEW020 BECMG 1813/1817 03012KT=